createdAt,value
2023-07-22T00:00:50.500Z,2.90
2023-07-22T00:03:18.741Z,3.10
2023-07-22T00:05:48.183Z,2.75
2023-07-22T00:08:16.313Z,2.60
2023-07-22T00:10:44.598Z,2.72
2023-07-22T00:13:12.801Z,2.78
2023-07-22T00:15:40.812Z,2.60
2023-07-22T00:18:08.973Z,3.65
2023-07-22T00:20:37.436Z,2.90
2023-07-22T00:23:07.325Z,2.72
2023-07-22T00:25:35.479Z,3.10
2023-07-22T00:28:05.573Z,2.97
2023-07-22T00:30:33.685Z,3.17
2023-07-22T00:33:02.373Z,3.65
2023-07-22T00:35:30.668Z,3.20
2023-07-22T00:37:58.975Z,3.30
2023-07-22T00:40:28.819Z,3.08
2023-07-22T00:42:57.485Z,3.05
2023-07-22T00:45:25.660Z,3.10
2023-07-22T00:47:54.479Z,3.10
2023-07-22T00:50:24.692Z,3.05
2023-07-22T00:52:53.667Z,2.88
2023-07-22T00:55:22.423Z,3.03
2023-07-22T00:57:52.201Z,2.78
2023-07-22T01:00:20.112Z,3.63
2023-07-22T01:02:48.449Z,3.10
2023-07-22T01:05:17.485Z,3.42
2023-07-22T01:07:46.168Z,3.20
2023-07-22T01:10:16.459Z,3.33
2023-07-22T01:12:46.248Z,3.10
2023-07-22T01:15:15.806Z,3.10
2023-07-22T01:17:44.428Z,2.95
2023-07-22T01:20:13.658Z,3.10
2023-07-22T01:22:45.037Z,3.15
2023-07-22T01:25:14.672Z,3.15
2023-07-22T01:27:42.563Z,3.30
2023-07-22T01:30:12.032Z,3.50
2023-07-22T01:32:40.304Z,3.35
2023-07-22T01:35:09.185Z,3.10
2023-07-22T01:37:37.347Z,3.15
2023-07-22T01:40:13.498Z,3.08
2023-07-22T01:42:44.193Z,2.88
2023-07-22T01:45:12.821Z,2.85
2023-07-22T01:47:43.970Z,3.28
2023-07-22T01:50:12.678Z,3.05
2023-07-22T01:52:40.704Z,2.92
2023-07-22T01:55:12.420Z,3.33
2023-07-22T01:57:43.331Z,2.90
2023-07-22T02:00:12.604Z,2.80
2023-07-22T02:02:44.021Z,2.80
2023-07-22T02:05:12.152Z,2.83
2023-07-22T02:07:40.471Z,2.67
2023-07-22T02:10:10.985Z,2.90
2023-07-22T02:12:39.067Z,2.58
2023-07-22T02:15:09.967Z,3.13
2023-07-22T02:17:38.090Z,2.63
2023-07-22T02:20:07.216Z,2.83
2023-07-22T02:22:35.219Z,2.80
2023-07-22T02:25:03.193Z,2.40
2023-07-22T02:27:31.303Z,2.95
2023-07-22T02:29:59.557Z,2.58
2023-07-22T02:32:29.168Z,2.97
2023-07-22T02:34:57.068Z,2.53
2023-07-22T02:37:25.894Z,3.05
2023-07-22T02:39:56.699Z,2.78
2023-07-22T02:42:24.651Z,3.25
2023-07-22T02:44:53.333Z,3.08
2023-07-22T02:47:21.350Z,2.90
2023-07-22T02:49:51.168Z,2.50
2023-07-22T02:52:19.239Z,2.92
2023-07-22T02:55:06.947Z,2.80
2023-07-22T02:57:35.164Z,2.97
2023-07-22T03:00:08.458Z,3.40
2023-07-22T03:02:37.062Z,3.53
2023-07-22T03:05:11.476Z,3.03
2023-07-22T03:07:40.237Z,3.15
2023-07-22T03:10:09.151Z,3.15
2023-07-22T03:12:37.471Z,2.90
2023-07-22T03:15:06.919Z,3.00
2023-07-22T03:17:34.997Z,3.03
2023-07-22T03:20:03.019Z,3.22
2023-07-22T03:22:32.780Z,3.30
2023-07-22T03:25:00.856Z,3.33
2023-07-22T03:27:28.921Z,3.70
2023-07-22T03:29:56.888Z,3.63
2023-07-22T03:32:25.275Z,2.97
2023-07-22T03:34:53.584Z,3.50
2023-07-22T03:37:21.902Z,3.40
2023-07-22T03:39:52.241Z,3.38
2023-07-22T03:42:20.262Z,3.17
2023-07-22T03:44:48.176Z,2.97
2023-07-22T03:47:16.211Z,3.08
2023-07-22T03:49:44.051Z,3.58
2023-07-22T03:52:15.595Z,3.53
2023-07-22T03:54:43.577Z,3.00
2023-07-22T03:57:13.080Z,3.28
2023-07-22T03:59:41.589Z,3.00
2023-07-22T04:02:09.509Z,3.58
2023-07-22T04:04:37.427Z,3.35
2023-07-22T04:07:09.186Z,3.30
2023-07-22T04:09:37.337Z,3.25
2023-07-22T04:12:05.715Z,3.10
2023-07-22T04:14:35.270Z,2.97
2023-07-22T04:17:05.688Z,3.45
2023-07-22T04:19:33.906Z,3.00
2023-07-22T04:22:05.483Z,3.60
2023-07-22T04:24:33.817Z,3.38
2023-07-22T04:27:02.041Z,3.63
2023-07-22T04:29:30.027Z,3.20
2023-07-22T04:32:01.024Z,3.38
2023-07-22T04:34:31.095Z,2.80
2023-07-22T04:36:59.110Z,3.03
2023-07-22T04:39:27.548Z,2.70
2023-07-22T04:41:55.768Z,3.15
2023-07-22T04:44:23.610Z,3.13
2023-07-22T04:46:51.659Z,2.50
2023-07-22T04:49:21.141Z,2.70
2023-07-22T04:51:49.153Z,2.90
2023-07-22T04:54:17.174Z,2.95
2023-07-22T04:56:45.289Z,3.03
2023-07-22T04:59:14.971Z,2.85
2023-07-22T05:01:43.084Z,3.47
2023-07-22T05:04:11.116Z,3.25
2023-07-22T05:06:40.551Z,3.17
2023-07-22T05:09:08.556Z,3.22
2023-07-22T05:11:36.724Z,3.20
2023-07-22T05:14:04.764Z,3.20
2023-07-22T05:16:32.897Z,3.47
2023-07-22T05:19:00.967Z,3.60
2023-07-22T05:21:29.197Z,3.20
2023-07-22T05:23:58.738Z,2.47
2023-07-22T05:26:27.064Z,3.22
2023-07-22T05:28:55.109Z,3.03
2023-07-22T05:31:23.489Z,2.70
2023-07-22T05:33:51.430Z,3.30
2023-07-22T05:36:19.497Z,3.08
2023-07-22T05:38:47.522Z,2.90
2023-07-22T05:41:17.888Z,3.58
2023-07-22T05:43:45.904Z,3.33
2023-07-22T05:46:13.886Z,2.95
2023-07-22T05:48:42.074Z,2.80
2023-07-22T05:51:10.809Z,3.05
2023-07-22T05:53:39.001Z,2.95
2023-07-22T05:56:06.991Z,2.95
2023-07-22T05:58:36.808Z,3.72
2023-07-22T06:01:04.772Z,3.50
2023-07-22T06:03:33.121Z,3.40
2023-07-22T06:06:01.095Z,4.20
2023-07-22T06:08:29.196Z,3.28
2023-07-22T06:10:58.157Z,3.70
2023-07-22T06:13:26.228Z,4.20
2023-07-22T06:15:55.719Z,3.80
2023-07-22T06:18:24.263Z,3.40
2023-07-22T06:20:52.570Z,3.33
2023-07-22T06:23:20.877Z,3.17
2023-07-22T06:25:48.829Z,3.42
2023-07-22T06:28:17.006Z,3.50
2023-07-22T06:30:44.926Z,3.75
2023-07-22T06:33:14.685Z,3.47
2023-07-22T06:35:42.818Z,3.58
2023-07-22T06:38:11.080Z,4.40
2023-07-22T06:40:39.301Z,5.20
2023-07-22T06:43:07.660Z,6.50
2023-07-22T06:45:35.939Z,4.97
2023-07-22T06:48:04.634Z,4.75
2023-07-22T06:50:34.345Z,4.28
2023-07-22T06:53:03.045Z,3.65
2023-07-22T06:55:31.169Z,3.53
2023-07-22T06:57:59.631Z,3.53
2023-07-22T07:00:27.843Z,9.02
2023-07-22T07:02:57.223Z,7.78
2023-07-22T07:05:26.247Z,13.38
2023-07-22T07:07:57.450Z,4.53
2023-07-22T07:10:25.523Z,5.05
2023-07-22T07:12:53.749Z,5.07
2023-07-22T07:15:21.859Z,3.53
2023-07-22T07:17:50.258Z,4.25
2023-07-22T07:20:18.456Z,3.58
2023-07-22T07:22:46.727Z,3.42
2023-07-22T07:25:16.913Z,3.50
2023-07-22T07:27:45.606Z,3.42
2023-07-22T07:30:13.990Z,3.22
2023-07-22T07:32:42.290Z,3.63
2023-07-22T07:35:11.854Z,3.83
2023-07-22T07:37:40.226Z,3.30
2023-07-22T07:40:09.908Z,3.80
2023-07-22T07:42:39.914Z,3.53
2023-07-22T07:45:09.557Z,3.40
2023-07-22T07:47:38.079Z,3.78
2023-07-22T07:50:08.341Z,4.53
2023-07-22T07:52:36.532Z,3.63
2023-07-22T07:55:05.094Z,3.58
2023-07-22T07:57:33.308Z,4.00
2023-07-22T08:00:03.067Z,4.28
2023-07-22T08:02:32.626Z,3.30
2023-07-22T08:05:00.852Z,3.92
2023-07-22T08:07:29.113Z,3.42
2023-07-22T08:09:58.722Z,4.03
2023-07-22T08:12:27.076Z,3.58
2023-07-22T08:14:55.499Z,3.65
2023-07-22T08:17:25.286Z,3.53
2023-07-22T08:19:53.821Z,3.90
2023-07-22T08:22:22.221Z,3.47
2023-07-22T08:24:50.538Z,3.83
2023-07-22T08:27:19.120Z,3.95
2023-07-22T08:29:47.178Z,3.33
2023-07-22T08:32:15.514Z,3.92
2023-07-22T08:34:45.059Z,3.90
2023-07-22T08:37:13.418Z,4.38
2023-07-22T08:39:41.430Z,3.42
2023-07-22T08:42:10.324Z,3.95
2023-07-22T08:44:42.555Z,3.80
2023-07-22T08:47:16.115Z,3.88
2023-07-22T08:49:51.007Z,3.78
2023-07-22T08:52:19.958Z,4.32
2023-07-22T08:54:49.724Z,3.72
2023-07-22T08:57:19.080Z,4.03
2023-07-22T08:59:48.652Z,4.13
2023-07-22T09:02:18.177Z,4.50
2023-07-22T09:04:48.164Z,3.95
2023-07-22T09:07:18.094Z,4.00
2023-07-22T09:09:47.870Z,3.67
2023-07-22T09:12:16.805Z,3.53
2023-07-22T09:14:46.638Z,3.83
2023-07-22T09:17:14.951Z,4.13
2023-07-22T09:19:43.364Z,4.10
2023-07-22T09:22:13.196Z,3.95
2023-07-22T09:24:41.592Z,4.07
2023-07-22T09:27:09.984Z,4.38
2023-07-22T09:29:39.684Z,3.88
2023-07-22T09:32:08.913Z,3.80
2023-07-22T09:34:37.531Z,4.15
2023-07-22T09:37:06.826Z,4.00
2023-07-22T09:39:37.525Z,3.80
2023-07-22T09:42:07.496Z,4.03
2023-07-22T09:44:38.256Z,4.28
2023-07-22T09:47:09.934Z,3.80
2023-07-22T09:49:43.922Z,4.32
2023-07-22T09:52:14.010Z,4.97
2023-07-22T09:54:53.482Z,4.43
2023-07-22T09:57:23.738Z,4.38
2023-07-22T09:59:54.549Z,3.95
2023-07-22T10:02:24.256Z,3.65
2023-07-22T10:04:54.989Z,4.15
2023-07-22T10:07:23.677Z,4.13
2023-07-22T10:09:57.015Z,4.72
2023-07-22T10:12:26.364Z,4.03
2023-07-22T10:14:55.143Z,4.18
2023-07-22T10:17:24.058Z,4.15
2023-07-22T10:19:54.644Z,3.70
2023-07-22T10:22:23.805Z,4.50
2023-07-22T10:24:55.473Z,4.07
2023-07-22T10:27:25.084Z,4.30
2023-07-22T10:29:55.400Z,3.72
2023-07-22T10:32:24.224Z,3.88
2023-07-22T10:34:52.555Z,4.88
2023-07-22T10:37:25.968Z,4.07
2023-07-22T10:40:01.435Z,4.25
2023-07-22T10:42:32.945Z,4.35
2023-07-22T10:45:03.181Z,4.60
2023-07-22T10:47:36.139Z,4.00
2023-07-22T10:50:09.675Z,4.03
2023-07-22T10:52:44.405Z,4.63
2023-07-22T10:55:21.407Z,4.38
2023-07-22T10:57:51.646Z,4.13
2023-07-22T11:00:22.023Z,4.75
2023-07-22T11:03:11.310Z,4.40
2023-07-22T11:05:54.372Z,4.28
2023-07-22T11:08:39.534Z,4.88
2023-07-22T11:11:09.646Z,4.63
2023-07-22T11:13:42.593Z,4.38
2023-07-22T11:16:15.025Z,3.63
2023-07-22T11:18:44.123Z,3.95
2023-07-22T11:21:13.369Z,4.35
2023-07-22T11:23:42.056Z,4.40
2023-07-22T11:26:12.656Z,4.10
2023-07-22T11:28:43.052Z,4.03
2023-07-22T11:31:13.007Z,3.47
2023-07-22T11:33:42.152Z,4.03
2023-07-22T11:36:10.853Z,3.40
2023-07-22T11:38:39.243Z,4.63
2023-07-22T11:41:07.924Z,3.70
2023-07-22T11:43:37.730Z,4.35
2023-07-22T11:46:07.743Z,3.63
2023-07-22T11:48:36.225Z,3.80
2023-07-22T11:51:04.704Z,4.22
2023-07-22T11:53:33.257Z,3.53
2023-07-22T11:56:02.524Z,3.80
2023-07-22T11:58:32.680Z,4.38
2023-07-22T12:01:12.483Z,3.85
2023-07-22T12:03:41.896Z,3.83
2023-07-22T12:06:10.550Z,3.72
2023-07-22T12:08:44.295Z,4.03
2023-07-22T12:11:19.243Z,4.00
2023-07-22T12:13:51.629Z,3.83
2023-07-22T12:16:25.600Z,4.18
2023-07-22T12:18:57.918Z,4.05
2023-07-22T12:21:26.890Z,4.22
2023-07-22T12:23:55.962Z,3.78
2023-07-22T12:26:24.636Z,3.78
2023-07-22T12:28:53.133Z,3.47
2023-07-22T12:31:21.488Z,3.53
2023-07-22T12:33:51.873Z,3.95
2023-07-22T12:36:20.332Z,3.90
2023-07-22T12:38:49.201Z,3.28
2023-07-22T12:41:17.595Z,3.90
2023-07-22T12:43:46.418Z,3.83
2023-07-22T12:46:14.806Z,4.10
2023-07-22T12:48:43.182Z,3.25
2023-07-22T12:51:13.131Z,3.95
2023-07-22T12:53:41.511Z,4.03
2023-07-22T12:56:09.804Z,3.50
2023-07-22T12:58:38.282Z,3.80
2023-07-22T13:01:06.416Z,3.50
2023-07-22T13:03:34.492Z,3.42
2023-07-22T13:06:02.871Z,3.42
2023-07-22T13:08:32.509Z,3.53
2023-07-22T13:11:00.480Z,3.65
2023-07-22T13:13:28.593Z,3.70
2023-07-22T13:15:56.962Z,4.10
2023-07-22T13:18:25.261Z,3.70
2023-07-22T13:20:53.570Z,3.72
2023-07-22T13:23:21.660Z,4.35
2023-07-22T13:25:51.821Z,3.85
2023-07-22T13:28:20.120Z,4.00
2023-07-22T13:30:49.894Z,4.20
2023-07-22T13:33:19.722Z,4.43
2023-07-22T13:35:47.783Z,4.03
2023-07-22T13:38:15.960Z,4.13
2023-07-22T13:40:44.074Z,4.10
2023-07-22T13:43:13.741Z,3.92
2023-07-22T13:45:42.628Z,4.13
2023-07-22T13:48:13.071Z,4.05
2023-07-22T13:50:42.686Z,4.05
2023-07-22T13:53:11.051Z,3.75
2023-07-22T13:55:39.195Z,4.45
2023-07-22T13:58:07.263Z,4.03
2023-07-22T14:00:37.320Z,3.95
2023-07-22T14:03:05.602Z,4.15
2023-07-22T14:05:34.119Z,3.85
2023-07-22T14:08:02.089Z,4.07
2023-07-22T14:10:30.476Z,3.85
2023-07-22T14:12:58.646Z,4.18
2023-07-22T14:15:26.772Z,3.90
2023-07-22T14:17:56.355Z,4.20
2023-07-22T14:20:24.531Z,7.53
2023-07-22T14:22:52.795Z,3.78
2023-07-22T14:25:21.127Z,4.10
2023-07-22T14:27:49.318Z,3.95
2023-07-22T14:30:17.801Z,4.13
2023-07-22T14:32:46.367Z,4.03
2023-07-22T14:35:16.196Z,3.85
2023-07-22T14:37:44.250Z,3.97
2023-07-22T14:40:13.389Z,3.83
2023-07-22T14:42:41.586Z,3.70
2023-07-22T14:45:10.717Z,4.18
2023-07-22T14:47:38.963Z,3.40
2023-07-22T14:50:07.580Z,4.28
2023-07-22T14:52:37.353Z,3.55
2023-07-22T14:55:06.311Z,4.10
2023-07-22T14:57:34.411Z,3.90
2023-07-22T15:00:02.780Z,3.92
2023-07-22T15:02:30.879Z,4.10
2023-07-22T15:04:59.081Z,3.50
2023-07-22T15:07:27.285Z,3.40
2023-07-22T15:09:59.705Z,3.67
2023-07-22T15:12:27.784Z,3.70
2023-07-22T15:14:55.719Z,4.00
2023-07-22T15:17:24.257Z,3.90
2023-07-22T15:19:52.524Z,3.85
2023-07-22T15:22:21.282Z,4.18
2023-07-22T15:24:49.603Z,3.88
2023-07-22T15:27:19.184Z,4.10
2023-07-22T15:29:47.606Z,3.80
2023-07-22T15:32:16.974Z,3.83
2023-07-22T15:34:45.112Z,4.18
2023-07-22T15:37:13.461Z,4.10
2023-07-22T15:39:41.521Z,3.42
2023-07-22T15:42:09.745Z,3.85
2023-07-22T15:44:39.242Z,4.05
2023-07-22T15:47:07.933Z,3.78
2023-07-22T15:49:36.014Z,3.47
2023-07-22T15:52:05.779Z,3.95
2023-07-22T15:54:33.962Z,3.97
2023-07-22T15:57:02.263Z,3.97
2023-07-22T15:59:30.521Z,4.38
2023-07-22T16:02:01.361Z,4.20
2023-07-22T16:04:29.550Z,3.83
2023-07-22T16:06:57.491Z,3.65
2023-07-22T16:09:25.741Z,4.15
2023-07-22T16:11:54.371Z,3.97
2023-07-22T16:14:22.638Z,4.13
2023-07-22T16:16:50.812Z,3.88
2023-07-22T16:19:20.554Z,4.07
2023-07-22T16:21:48.906Z,4.10
2023-07-22T16:24:17.036Z,3.72
2023-07-22T16:26:45.321Z,4.35
2023-07-22T16:29:15.796Z,3.83
2023-07-22T16:31:45.180Z,4.25
2023-07-22T16:34:13.323Z,3.67
2023-07-22T16:36:42.925Z,4.18
2023-07-22T16:39:11.242Z,4.05
2023-07-22T16:41:39.514Z,4.32
2023-07-22T16:44:07.568Z,4.07
2023-07-22T16:46:35.783Z,3.60
2023-07-22T16:49:04.036Z,3.55
2023-07-22T16:51:32.342Z,3.55
2023-07-22T16:54:02.019Z,3.28
2023-07-22T16:56:30.266Z,3.90
2023-07-22T16:58:59.040Z,3.70
2023-07-22T17:01:27.505Z,3.85
2023-07-22T17:03:55.825Z,4.03
2023-07-22T17:06:23.999Z,3.72
2023-07-22T17:08:51.994Z,3.60
2023-07-22T17:11:21.828Z,4.25
2023-07-22T17:13:51.504Z,4.43
2023-07-22T17:16:19.721Z,4.20
2023-07-22T17:18:47.960Z,4.00
2023-07-22T17:21:16.113Z,3.53
2023-07-22T17:23:44.289Z,4.07
2023-07-22T17:26:12.934Z,3.95
2023-07-22T17:28:42.410Z,3.70
2023-07-22T17:31:10.758Z,4.05
2023-07-22T17:33:39.128Z,4.13
2023-07-22T17:36:07.295Z,3.60
2023-07-22T17:38:35.423Z,3.72
2023-07-22T17:41:03.491Z,3.47
2023-07-22T17:43:31.701Z,3.72
2023-07-22T17:46:01.453Z,3.65
2023-07-22T17:48:29.724Z,3.88
2023-07-22T17:50:57.722Z,4.20
2023-07-22T17:53:25.837Z,4.10
2023-07-22T17:55:53.957Z,3.90
2023-07-22T17:58:22.153Z,3.80
2023-07-22T18:00:50.225Z,4.05
2023-07-22T18:03:19.889Z,3.97
2023-07-22T18:05:49.324Z,4.10
2023-07-22T18:08:17.448Z,3.60
2023-07-22T18:10:45.537Z,4.35
2023-07-22T18:13:32.125Z,3.80
2023-07-22T18:16:06.828Z,3.65
2023-07-22T18:18:36.337Z,4.03
2023-07-22T18:21:04.611Z,4.10
2023-07-22T18:23:32.609Z,3.85
2023-07-22T18:26:00.714Z,4.60
2023-07-22T18:28:29.159Z,4.03
2023-07-22T18:30:57.401Z,3.95
2023-07-22T18:33:25.590Z,4.13
2023-07-22T18:35:55.180Z,4.35
2023-07-22T18:38:23.281Z,4.32
2023-07-22T18:40:51.584Z,4.03
2023-07-22T18:43:21.145Z,4.20
2023-07-22T18:45:51.542Z,3.70
2023-07-22T18:48:19.614Z,3.80
2023-07-22T18:50:47.882Z,4.25
2023-07-22T18:53:17.632Z,4.85
2023-07-22T18:55:45.660Z,3.75
2023-07-22T18:58:13.743Z,4.35
2023-07-22T19:00:41.896Z,4.18
2023-07-22T19:03:10.110Z,4.43
2023-07-22T19:05:39.837Z,4.63
2023-07-22T19:08:08.038Z,6.20
2023-07-22T19:10:44.407Z,5.35
2023-07-22T19:13:12.578Z,5.78
2023-07-22T19:15:40.629Z,5.55
2023-07-22T19:18:09.391Z,5.50
2023-07-22T19:20:37.364Z,5.05
2023-07-22T19:23:07.541Z,4.65
2023-07-22T19:25:39.555Z,4.85
2023-07-22T19:28:07.978Z,4.90
2023-07-22T19:30:38.720Z,4.57
2023-07-22T19:33:06.980Z,3.97
2023-07-22T19:35:34.981Z,5.05
2023-07-22T19:38:03.089Z,5.22
2023-07-22T19:40:31.438Z,4.32
2023-07-22T19:43:01.069Z,4.47
2023-07-22T19:45:29.655Z,5.03
2023-07-22T19:47:57.748Z,4.53
2023-07-22T19:50:25.984Z,5.50
2023-07-22T19:52:54.164Z,4.47
2023-07-22T19:55:22.344Z,4.30
2023-07-22T19:57:50.398Z,4.40
2023-07-22T20:00:20.096Z,4.38
2023-07-22T20:02:48.163Z,4.03
2023-07-22T20:05:16.277Z,4.32
2023-07-22T20:07:44.436Z,3.80
2023-07-22T20:10:12.538Z,3.90
2023-07-22T20:12:40.730Z,4.75
2023-07-22T20:15:09.539Z,4.10
2023-07-22T20:17:39.292Z,4.13
2023-07-22T20:20:08.887Z,4.20
2023-07-22T20:22:36.885Z,4.85
2023-07-22T20:25:05.370Z,3.35
2023-07-22T20:27:33.629Z,3.95
2023-07-22T20:30:06.667Z,4.28
2023-07-22T20:32:35.058Z,4.38
2023-07-22T20:35:10.549Z,4.47
2023-07-22T20:37:38.882Z,4.10
2023-07-22T20:40:08.279Z,3.60
2023-07-22T20:42:36.355Z,3.85
2023-07-22T20:45:04.829Z,3.95
2023-07-22T20:47:32.952Z,4.10
2023-07-22T20:50:01.087Z,4.20
2023-07-22T20:52:30.802Z,4.05
2023-07-22T20:54:59.080Z,4.70
2023-07-22T20:57:27.423Z,4.15
2023-07-22T20:59:58.308Z,3.92
2023-07-22T21:02:26.543Z,4.40
2023-07-22T21:04:56.236Z,4.15
2023-07-22T21:07:24.523Z,3.63
2023-07-22T21:09:54.036Z,3.40
2023-07-22T21:12:22.288Z,3.60
2023-07-22T21:14:50.286Z,3.38
2023-07-22T21:17:18.486Z,4.00
2023-07-22T21:19:46.641Z,3.88
2023-07-22T21:22:14.773Z,4.25
2023-07-22T21:24:43.032Z,4.20
2023-07-22T21:27:12.784Z,3.72
2023-07-22T21:29:40.874Z,3.67
2023-07-22T21:32:09.705Z,4.25
2023-07-22T21:34:37.654Z,4.05
2023-07-22T21:37:06.162Z,4.15
2023-07-22T21:39:34.704Z,4.43
2023-07-22T21:42:06.800Z,4.35
2023-07-22T21:44:36.374Z,3.92
2023-07-22T21:47:04.804Z,4.57
2023-07-22T21:49:33.223Z,4.47
2023-07-22T21:52:01.273Z,4.18
2023-07-22T21:54:29.456Z,4.38
2023-07-22T21:56:57.943Z,4.10
2023-07-22T21:59:26.246Z,4.13
2023-07-22T22:01:55.725Z,3.92
2023-07-22T22:04:23.944Z,4.15
2023-07-22T22:06:53.650Z,4.40
2023-07-22T22:09:22.521Z,4.03
2023-07-22T22:11:51.412Z,3.75
2023-07-22T22:14:19.671Z,3.83
2023-07-22T22:16:47.882Z,4.25
2023-07-22T22:19:18.209Z,4.15
2023-07-22T22:21:46.359Z,4.05
2023-07-22T22:24:14.517Z,3.88
2023-07-22T22:26:42.731Z,4.60
2023-07-22T22:29:10.844Z,3.78
2023-07-22T22:31:39.175Z,3.88
2023-07-22T22:34:07.164Z,4.68
2023-07-22T22:36:36.860Z,3.67
2023-07-22T22:39:05.094Z,4.38
2023-07-22T22:41:33.166Z,4.32
2023-07-22T22:44:01.366Z,4.55
2023-07-22T22:46:29.545Z,4.57
2023-07-22T22:48:58.410Z,4.78
2023-07-22T22:51:26.706Z,4.22
2023-07-22T22:53:56.709Z,4.22
2023-07-22T22:56:25.101Z,3.95
2023-07-22T22:58:53.369Z,4.10
2023-07-22T23:01:21.489Z,3.90
2023-07-22T23:03:49.404Z,4.40
2023-07-22T23:06:18.844Z,3.85
2023-07-22T23:08:48.428Z,4.47
2023-07-22T23:11:19.508Z,4.03
2023-07-22T23:13:49.115Z,3.78
2023-07-22T23:16:17.705Z,3.92
2023-07-22T23:18:47.480Z,4.28
2023-07-22T23:21:18.645Z,4.32
2023-07-22T23:23:49.986Z,4.10
2023-07-22T23:26:19.343Z,4.85
2023-07-22T23:28:47.044Z,4.60
2023-07-22T23:31:15.012Z,4.47
2023-07-22T23:33:42.904Z,4.30
2023-07-22T23:36:11.766Z,4.57
2023-07-22T23:38:39.788Z,3.88
2023-07-22T23:41:08.888Z,4.25
2023-07-22T23:43:38.278Z,4.18
2023-07-22T23:46:06.556Z,3.40
2023-07-22T23:48:34.444Z,3.55
2023-07-22T23:51:02.397Z,4.05
2023-07-22T23:53:30.316Z,4.13
2023-07-22T23:55:58.327Z,4.07
2023-07-22T23:58:26.376Z,3.72
